Chanute, KS

5:17 PM CST on February 08, 2016 (GMT -0600)
Chanute Martin Johnson | | Change Station
CLOSE
Current Station
Airport
Location: Chanute,
Elevation: 1001 ft
Nearby Weather Stations
Active Advisory: Wind Advisory Active Notice: Public Information Statement

Elev 1001 ft 37.67 °N, 95.48 °W | Updated 25 minutes ago

Mostly Cloudy
Mostly Cloudy
40 °F
Feels Like 29 °F
N
25
Wind Variable Wind from NW
Gusts 39 mph

Today
High -- | Low -- °F
--% Chance of Precip.
Yesterday
High -- | Low -- °F
Precip. -- in
Pressure 30.16 in
Visibility 10.0 miles
Clouds Mostly Cloudy 6000 ft
Windchill 29 °F
Dew Point 12 °F
Humidity 32%
Rainfall 0.00 in
Snow Depth Not available.
7:19 AM 5:53 PM
New Moon, 0% visible
METAR KCNU 082252Z AUTO 32022G34KT 10SM BKN060 04/M11 A3014 RMK AO2 PK WND 33036/2155 SLP211 T00441111
Pressure 30.16 in
Visibility 10.0 miles
Clouds Mostly Cloudy 6000 ft
Windchill 29 °F
Dew Point 12 °F
Humidity 32%
Rainfall 0.00 in
Snow Depth Not available.
7:19 AM 5:53 PM
New Moon, 0% visible
METAR KCNU 082252Z AUTO 32022G34KT 10SM BKN060 04/M11 A3014 RMK AO2 PK WND 33036/2155 SLP211 T00441111

10-Day Weather Forecast

Almanac

Astronomy

Feb. 08, 2016 Rise Set
Actual Time
Civil Twilight
Nautical Twilight
Astronomical Twilight
Moon
Length of Visible Light
Length of Day
Tomorrow will be .
, % of the Moon is Illuminated

Today's Extremes

State Highs State Lows

Community

WunderPhotos

Upload Photos

1,891,525 photos uploaded!

WunderBlog® & News

Nearby

Air Quality

  Air Quality AQ Index Pollutant
Not available.

Snow Depth

Station Depth Elevation

Earthquake Activity

City Distance Mag. Time & Date
Minimum magnitude displayed is 2.5.

Coastal Water Temperatures

Place Temperature

Stations

Nearby Weather Stations

Station Location Temp. Windchill Dew Point Humidity Wind Precip. Elev Updated Type
                   

Watches & Warnings

Wind Advisory
Issued: 3:14 AM CST Feb. 8, 2016 – National Weather Service

... Wind Advisory remains in effect from 9 am this morning to 6 PM
CST this evening...

* winds... northwest 25 to 30 mph with gusts up to 45 mph.

* Timing... strong winds will begin to develop during the mid-
morning hours and continue through the early evening hours.

Precautionary/preparedness actions...

A Wind Advisory means that sustained winds of at least 30 mph
and/or wind gusts over 45 mph are expected. Winds this strong
can make driving difficult... especially for high profile
vehicles. Use extra caution.



Ketcham